createdAt,value
2019-03-01T00:01:19.260Z,65.40
2019-03-01T00:03:23.189Z,57.67
2019-03-01T00:05:49.737Z,55.97
2019-03-01T00:08:11.018Z,82.77
2019-03-01T00:10:33.078Z,62.00
2019-03-01T00:12:59.445Z,61.90
2019-03-01T00:15:19.346Z,62.87
2019-03-01T00:17:27.505Z,61.20
2019-03-01T00:19:42.885Z,71.23
2019-03-01T00:22:14.109Z,66.17
2019-03-01T00:24:23.372Z,78.10
2019-03-01T00:26:34.385Z,79.87
2019-03-01T00:28:43.082Z,73.53
2019-03-01T00:31:05.215Z,84.33
2019-03-01T00:33:28.462Z,67.90
2019-03-01T00:35:58.291Z,61.93
2019-03-01T00:38:22.002Z,64.00
2019-03-01T00:40:54.319Z,68.43
2019-03-01T00:43:01.114Z,71.00
2019-03-01T00:45:07.058Z,67.57
2019-03-01T00:47:11.256Z,72.80
2019-03-01T00:49:15.096Z,59.07
2019-03-01T00:51:18.986Z,71.70
2019-03-01T00:53:22.845Z,74.10
2019-03-01T00:55:26.782Z,68.73
2019-03-01T00:57:30.661Z,62.87
2019-03-01T00:59:34.518Z,71.60
2019-03-01T01:01:38.433Z,60.13
2019-03-01T01:03:42.350Z,85.20
2019-03-01T01:05:46.734Z,75.07
2019-03-01T01:07:50.640Z,58.67
2019-03-01T01:09:54.501Z,68.70
2019-03-01T01:11:58.458Z,69.87
2019-03-01T01:14:02.292Z,67.30
2019-03-01T01:16:06.158Z,70.57
2019-03-01T01:18:10.042Z,72.97
2019-03-01T01:20:13.961Z,69.90
2019-03-01T01:22:17.846Z,72.47
2019-03-01T01:24:21.718Z,74.90
2019-03-01T01:26:25.590Z,78.53
2019-03-01T01:28:29.479Z,69.07
2019-03-01T01:30:33.364Z,66.83
2019-03-01T01:32:37.240Z,58.93
2019-03-01T01:34:41.137Z,64.77
2019-03-01T01:36:45.003Z,65.10
2019-03-01T01:38:48.865Z,55.70
2019-03-01T01:40:52.768Z,65.10
2019-03-01T01:42:56.619Z,72.53
2019-03-01T01:45:00.482Z,60.40
2019-03-01T01:47:04.374Z,60.63
2019-03-01T01:49:08.284Z,67.83
2019-03-01T01:51:12.173Z,69.03
2019-03-01T01:53:16.068Z,63.80
2019-03-01T01:55:19.924Z,62.43
2019-03-01T01:57:23.975Z,56.67
2019-03-01T01:59:27.855Z,61.23
2019-03-01T02:01:31.766Z,60.83
2019-03-01T02:03:35.647Z,60.17
2019-03-01T02:05:39.498Z,69.27
2019-03-01T02:07:43.408Z,66.40
2019-03-01T02:09:47.387Z,89.00
2019-03-01T02:11:51.534Z,82.27
2019-03-01T02:13:55.382Z,79.17
2019-03-01T02:15:59.245Z,90.73
2019-03-01T02:18:03.145Z,73.23
2019-03-01T02:20:09.845Z,64.40
2019-03-01T02:22:13.686Z,85.90
2019-03-01T02:24:17.632Z,94.13
2019-03-01T02:26:21.480Z,91.73
2019-03-01T02:28:25.359Z,76.57
2019-03-01T02:30:41.169Z,83.47
2019-03-01T02:32:45.774Z,92.40
2019-03-01T02:34:49.653Z,83.30
2019-03-01T02:36:53.549Z,88.43
2019-03-01T02:38:57.426Z,91.30
2019-03-01T02:41:01.324Z,93.93
2019-03-01T02:43:05.831Z,98.80
2019-03-01T02:45:15.730Z,125.27
2019-03-01T02:47:19.675Z,92.67
2019-03-01T02:49:23.539Z,111.03
2019-03-01T02:51:27.470Z,104.50
2019-03-01T02:53:31.385Z,114.83
2019-03-01T02:55:35.227Z,104.23
2019-03-01T02:57:39.145Z,87.77
2019-03-01T02:59:43.039Z,83.50
2019-03-01T03:01:46.931Z,91.93
2019-03-01T03:03:50.870Z,84.57
2019-03-01T03:06:02.302Z,83.40
2019-03-01T03:08:07.770Z,94.20
2019-03-01T03:10:11.874Z,87.87
2019-03-01T03:12:15.747Z,95.57
2019-03-01T03:14:19.643Z,88.37
2019-03-01T03:16:23.507Z,94.07
2019-03-01T03:18:27.432Z,97.67
2019-03-01T03:20:31.298Z,96.00
2019-03-01T03:22:35.169Z,91.70
2019-03-01T03:24:39.053Z,97.00
2019-03-01T03:26:42.997Z,99.13
2019-03-01T03:28:46.959Z,92.43
2019-03-01T03:30:50.957Z,93.83
2019-03-01T03:32:54.849Z,78.53
2019-03-01T03:34:58.735Z,39.77
2019-03-01T03:37:02.652Z,35.90
2019-03-01T03:39:09.028Z,66.37
2019-03-01T03:41:12.985Z,55.93
2019-03-01T03:43:16.864Z,74.90
2019-03-01T03:45:20.725Z,76.87
2019-03-01T03:47:24.598Z,48.13
2019-03-01T03:49:28.501Z,54.03
2019-03-01T03:51:32.471Z,48.80
2019-03-01T03:53:36.350Z,61.27
2019-03-01T03:55:41.135Z,66.23
2019-03-01T03:57:45.338Z,56.03
2019-03-01T03:59:49.217Z,71.37
2019-03-01T04:01:53.190Z,80.07
2019-03-01T04:03:57.058Z,52.83
2019-03-01T04:06:01.108Z,68.57
2019-03-01T04:08:05.062Z,73.27
2019-03-01T04:10:10.627Z,114.50
2019-03-01T04:12:14.538Z,102.40
2019-03-01T04:14:18.551Z,79.30
2019-03-01T04:16:22.447Z,63.10
2019-03-01T04:18:26.342Z,64.30
2019-03-01T04:20:30.225Z,60.33
2019-03-01T04:22:34.079Z,58.97
2019-03-01T04:24:37.973Z,67.17
2019-03-01T04:26:41.902Z,59.17
2019-03-01T04:28:45.737Z,59.27
2019-03-01T04:30:49.750Z,76.93
2019-03-01T04:32:53.603Z,70.33
2019-03-01T04:34:57.495Z,74.50
2019-03-01T04:37:01.408Z,75.67
2019-03-01T04:39:07.202Z,75.50
2019-03-01T04:41:11.105Z,66.77
2019-03-01T04:43:14.997Z,100.83
2019-03-01T04:45:19.245Z,60.63
2019-03-01T04:47:23.137Z,62.40
2019-03-01T04:49:26.993Z,74.53
2019-03-01T04:51:39.720Z,70.33
2019-03-01T04:53:36.427Z,61.73
2019-03-01T04:55:40.313Z,77.87
2019-03-01T04:57:44.217Z,73.37
2019-03-01T04:59:48.089Z,75.87
2019-03-01T05:01:52.153Z,74.87
2019-03-01T05:03:55.994Z,75.80
2019-03-01T05:05:59.889Z,78.20
2019-03-01T05:08:03.789Z,92.97
2019-03-01T05:10:11.329Z,70.40
2019-03-01T05:12:15.224Z,67.60
2019-03-01T05:14:19.090Z,63.73
2019-03-01T05:16:22.949Z,66.47
2019-03-01T05:18:26.812Z,62.77
2019-03-01T05:20:31.205Z,61.53
2019-03-01T05:22:35.279Z,65.27
2019-03-01T05:24:39.302Z,58.60
2019-03-01T05:26:43.183Z,58.90
2019-03-01T05:28:47.046Z,56.90
2019-03-01T05:30:50.931Z,60.07
2019-03-01T05:32:54.791Z,56.90
2019-03-01T05:34:58.639Z,48.93
2019-03-01T05:37:02.602Z,47.70
2019-03-01T05:39:06.478Z,41.10
2019-03-01T05:41:10.410Z,40.93
2019-03-01T05:43:14.329Z,40.63
2019-03-01T05:45:26.288Z,36.97
2019-03-01T05:47:30.226Z,36.73
2019-03-01T05:49:34.078Z,32.10
2019-03-01T05:51:38.095Z,38.63
2019-03-01T05:53:41.962Z,36.10
2019-03-01T05:55:45.846Z,29.80
2019-03-01T05:58:21.511Z,35.13
2019-03-01T06:00:25.385Z,32.17
2019-03-01T06:02:56.367Z,27.07
2019-03-01T06:05:00.674Z,22.33
2019-03-01T06:07:16.494Z,22.67
2019-03-01T06:09:38.505Z,22.83
2019-03-01T06:12:03.537Z,20.37
2019-03-01T06:14:37.423Z,19.70
2019-03-01T06:16:49.924Z,16.87
2019-03-01T06:19:14.751Z,17.73
2019-03-01T06:21:42.196Z,16.67
2019-03-01T06:23:51.676Z,15.57
2019-03-01T06:26:01.078Z,16.37
2019-03-01T06:28:44.059Z,17.27
2019-03-01T06:30:56.534Z,16.30
2019-03-01T06:33:30.525Z,13.80
2019-03-01T06:35:42.933Z,13.87
2019-03-01T06:38:06.022Z,14.17
2019-03-01T06:40:35.421Z,16.10
2019-03-01T06:42:45.222Z,11.07
2019-03-01T06:44:54.787Z,13.57
2019-03-01T06:47:13.613Z,16.00
2019-03-01T06:49:22.078Z,19.43
2019-03-01T06:51:29.067Z,20.67
2019-03-01T06:53:33.239Z,21.07
2019-03-01T06:55:39.625Z,20.33
2019-03-01T06:57:43.484Z,18.97
2019-03-01T06:59:47.737Z,21.40
2019-03-01T07:01:51.586Z,31.83
2019-03-01T07:03:56.010Z,20.77
2019-03-01T07:06:03.272Z,23.07
2019-03-01T07:08:05.407Z,25.87
2019-03-01T07:10:09.595Z,24.03
2019-03-01T07:12:13.445Z,23.83
2019-03-01T07:14:17.408Z,20.57
2019-03-01T07:16:21.276Z,28.17
2019-03-01T07:18:25.128Z,31.27
2019-03-01T07:20:29.003Z,22.23
2019-03-01T07:22:32.919Z,19.60
2019-03-01T07:24:36.779Z,20.20
2019-03-01T07:26:40.672Z,17.37
2019-03-01T07:28:44.573Z,15.83
2019-03-01T07:30:48.467Z,23.90
2019-03-01T07:32:52.311Z,17.30
2019-03-01T07:34:56.217Z,19.57
2019-03-01T07:37:00.122Z,15.43
2019-03-01T07:39:05.678Z,19.30
2019-03-01T07:41:09.578Z,12.03
2019-03-01T07:43:13.435Z,12.37
2019-03-01T07:45:17.284Z,13.80
2019-03-01T07:47:21.163Z,10.40
2019-03-01T07:49:25.026Z,11.47
2019-03-01T07:51:30.714Z,9.43
2019-03-01T07:53:36.154Z,12.40
2019-03-01T07:55:40.008Z,17.57
2019-03-01T07:57:46.525Z,14.07
2019-03-01T07:59:49.496Z,14.50
2019-03-01T08:01:55.774Z,10.70
2019-03-01T08:03:58.874Z,11.57
2019-03-01T08:06:02.739Z,12.60
2019-03-01T08:08:06.625Z,16.43
2019-03-01T08:10:12.482Z,12.70
2019-03-01T08:12:16.410Z,14.80
2019-03-01T08:14:20.280Z,17.00
2019-03-01T08:16:25.226Z,14.27
2019-03-01T08:18:29.355Z,10.33
2019-03-01T08:20:33.928Z,15.33
2019-03-01T08:22:47.927Z,14.43
2019-03-01T08:24:46.554Z,13.50
2019-03-01T08:26:49.205Z,12.07
2019-03-01T08:28:54.753Z,12.97
2019-03-01T08:30:58.631Z,11.37
2019-03-01T08:33:02.745Z,9.70
2019-03-01T08:35:10.666Z,10.57
2019-03-01T08:37:17.442Z,15.60
2019-03-01T08:39:20.093Z,11.10
2019-03-01T08:41:24.966Z,11.80
2019-03-01T08:43:29.474Z,21.73
2019-03-01T08:45:33.688Z,13.17
2019-03-01T08:47:37.618Z,8.90
2019-03-01T08:49:41.530Z,14.97
2019-03-01T08:51:45.395Z,11.53
2019-03-01T08:53:50.976Z,15.23
2019-03-01T08:55:54.815Z,11.10
2019-03-01T08:58:02.912Z,13.30
2019-03-01T09:00:05.872Z,9.30
2019-03-01T09:02:11.851Z,13.47
2019-03-01T09:04:18.088Z,14.60
2019-03-01T09:06:21.051Z,10.37
2019-03-01T09:08:26.472Z,12.03
2019-03-01T09:10:32.727Z,9.33
2019-03-01T09:12:36.021Z,10.90
2019-03-01T09:14:39.891Z,12.77
2019-03-01T09:16:43.817Z,9.33
2019-03-01T09:18:50.033Z,9.53
2019-03-01T09:20:53.182Z,11.10
2019-03-01T09:22:57.099Z,13.40
2019-03-01T09:25:02.650Z,12.60
2019-03-01T09:27:06.504Z,14.50
2019-03-01T09:29:13.004Z,8.83
2019-03-01T09:31:15.962Z,9.53
2019-03-01T09:33:21.600Z,7.33
2019-03-01T09:35:32.805Z,11.63
2019-03-01T09:37:36.637Z,14.07
2019-03-01T09:39:40.543Z,9.80
2019-03-01T09:41:44.436Z,9.13
2019-03-01T09:43:48.356Z,6.47
2019-03-01T09:45:52.233Z,11.60
2019-03-01T09:47:56.094Z,10.23
2019-03-01T09:50:01.164Z,13.73
2019-03-01T09:52:05.297Z,10.07
2019-03-01T09:54:10.188Z,10.20
2019-03-01T09:56:14.153Z,14.63
2019-03-01T09:58:18.054Z,11.77
2019-03-01T10:00:33.712Z,9.40
2019-03-01T10:02:37.573Z,8.23
2019-03-01T10:04:41.493Z,9.60
2019-03-01T10:06:45.353Z,7.70
2019-03-01T10:08:49.228Z,13.47
2019-03-01T10:10:53.123Z,13.20
2019-03-01T10:12:56.995Z,7.90
2019-03-01T10:15:00.918Z,18.83
2019-03-01T10:17:04.828Z,12.77
2019-03-01T10:19:08.726Z,12.40
2019-03-01T10:21:12.611Z,11.17
2019-03-01T10:23:16.540Z,10.97
2019-03-01T10:25:21.474Z,8.90
2019-03-01T10:27:25.389Z,13.13
2019-03-01T10:29:29.253Z,9.47
2019-03-01T10:31:33.139Z,12.67
2019-03-01T10:33:37.023Z,8.87
2019-03-01T10:35:40.884Z,5.93
2019-03-01T10:37:44.970Z,7.00
2019-03-01T10:39:55.304Z,15.60
2019-03-01T10:41:54.433Z,9.17
2019-03-01T10:43:58.655Z,9.60
2019-03-01T10:46:02.551Z,5.57
2019-03-01T10:48:06.422Z,9.97
2019-03-01T10:50:11.877Z,9.03
2019-03-01T10:52:15.760Z,6.87
2019-03-01T10:54:19.680Z,9.93
2019-03-01T10:56:23.612Z,4.33
2019-03-01T10:58:27.526Z,9.60
2019-03-01T11:00:32.408Z,7.00
2019-03-01T11:02:36.309Z,9.80
2019-03-01T11:04:40.154Z,10.13
2019-03-01T11:06:44.103Z,6.13
2019-03-01T11:08:47.987Z,9.17
2019-03-01T11:10:51.858Z,15.00
2019-03-01T11:12:55.811Z,10.03
2019-03-01T11:14:59.665Z,6.07
2019-03-01T11:17:03.523Z,6.93
2019-03-01T11:19:07.406Z,7.83
2019-03-01T11:21:11.255Z,9.63
2019-03-01T11:23:15.142Z,5.53
2019-03-01T11:25:21.959Z,8.50
2019-03-01T11:27:25.857Z,12.33
2019-03-01T11:29:29.726Z,11.70
2019-03-01T11:31:33.586Z,12.57
2019-03-01T11:33:37.526Z,10.87
2019-03-01T11:35:41.396Z,8.60
2019-03-01T11:37:45.282Z,8.17
2019-03-01T11:39:49.176Z,7.67
2019-03-01T11:41:53.005Z,12.17
2019-03-01T11:43:56.883Z,10.93
2019-03-01T11:46:00.861Z,11.83
2019-03-01T11:48:05.691Z,7.30
2019-03-01T11:50:18.201Z,8.90
2019-03-01T11:52:22.048Z,14.23
2019-03-01T11:54:25.918Z,12.43
2019-03-01T11:56:30.015Z,12.03
2019-03-01T11:58:33.874Z,8.33
2019-03-01T12:00:37.800Z,8.43
2019-03-01T12:02:41.628Z,7.70
2019-03-01T12:04:45.504Z,7.13
2019-03-01T12:06:49.382Z,6.10
2019-03-01T12:08:53.250Z,9.63
2019-03-01T12:10:57.174Z,6.00
2019-03-01T12:13:01.057Z,7.33
2019-03-01T12:15:07.228Z,6.17
2019-03-01T12:17:11.156Z,9.83
2019-03-01T12:19:15.000Z,7.17
2019-03-01T12:21:18.925Z,8.10
2019-03-01T12:23:22.784Z,7.47
2019-03-01T12:25:26.647Z,7.93
2019-03-01T12:27:30.516Z,9.43
2019-03-01T12:29:34.485Z,9.17
2019-03-01T12:31:38.322Z,8.90
2019-03-01T12:33:42.242Z,10.40
2019-03-01T12:35:46.128Z,10.27
2019-03-01T12:37:50.006Z,12.10
2019-03-01T12:39:53.902Z,10.80
2019-03-01T12:41:57.848Z,7.97
2019-03-01T12:44:01.734Z,10.47
2019-03-01T12:46:05.594Z,8.57
2019-03-01T12:48:09.585Z,9.20
2019-03-01T12:50:14.565Z,9.37
2019-03-01T12:52:18.453Z,7.47
2019-03-01T12:54:22.539Z,7.97
2019-03-01T12:56:26.417Z,11.67
2019-03-01T12:58:30.274Z,9.20
2019-03-01T13:00:38.936Z,12.50
2019-03-01T13:02:42.791Z,8.50
2019-03-01T13:04:49.865Z,8.93
2019-03-01T13:06:52.193Z,11.87
2019-03-01T13:08:56.111Z,8.23
2019-03-01T13:11:00.026Z,6.80
2019-03-01T13:13:07.939Z,9.37
2019-03-01T13:15:13.841Z,5.93
2019-03-01T13:17:16.902Z,14.77
2019-03-01T13:19:23.371Z,7.33
2019-03-01T13:21:26.310Z,10.67
2019-03-01T13:23:30.160Z,8.30
2019-03-01T13:25:34.079Z,11.17
2019-03-01T13:27:37.938Z,9.17
2019-03-01T13:29:41.813Z,7.70
2019-03-01T13:31:47.095Z,11.10
2019-03-01T13:33:51.222Z,11.73
2019-03-01T13:35:55.089Z,11.07
2019-03-01T13:37:59.026Z,8.27
2019-03-01T13:40:02.916Z,12.97
2019-03-01T13:42:06.799Z,13.27
2019-03-01T13:44:10.686Z,7.27
2019-03-01T13:46:14.579Z,12.87
2019-03-01T13:48:18.925Z,7.63
2019-03-01T13:50:23.709Z,9.00
2019-03-01T13:52:30.065Z,6.70
2019-03-01T13:54:33.093Z,11.03
2019-03-01T13:56:36.967Z,11.53
2019-03-01T13:58:40.876Z,9.30
2019-03-01T14:00:45.630Z,7.90
2019-03-01T14:02:50.457Z,10.63
2019-03-01T14:04:54.387Z,12.17
2019-03-01T14:06:58.233Z,8.53
2019-03-01T14:09:02.187Z,7.37
2019-03-01T14:11:06.172Z,7.60
2019-03-01T14:13:11.216Z,7.47
2019-03-01T14:15:18.830Z,12.13
2019-03-01T14:17:24.608Z,12.33
2019-03-01T14:19:28.226Z,9.20
2019-03-01T14:21:33.031Z,11.57
2019-03-01T14:23:37.823Z,7.63
2019-03-01T14:25:42.310Z,7.20
2019-03-01T14:27:46.482Z,5.77
2019-03-01T14:29:53.497Z,8.57
2019-03-01T14:31:55.946Z,9.50
2019-03-01T14:33:59.820Z,9.03
2019-03-01T14:36:03.864Z,10.30
2019-03-01T14:38:08.332Z,11.80
2019-03-01T14:40:14.750Z,5.47
2019-03-01T14:42:18.686Z,8.40
2019-03-01T14:44:22.523Z,9.57
2019-03-01T14:46:26.408Z,11.20
2019-03-01T14:48:30.326Z,9.07
2019-03-01T14:50:34.747Z,10.17
2019-03-01T14:52:38.835Z,10.43
2019-03-01T14:54:45.169Z,8.13
2019-03-01T14:56:48.730Z,11.87
2019-03-01T14:58:58.790Z,13.47
2019-03-01T15:01:18.656Z,10.40
2019-03-01T15:03:36.356Z,14.87
2019-03-01T15:05:42.016Z,12.17
2019-03-01T15:07:45.810Z,10.03
2019-03-01T15:09:49.680Z,9.37
2019-03-01T15:11:53.541Z,7.03
2019-03-01T15:13:57.652Z,12.73
2019-03-01T15:16:04.653Z,9.23
2019-03-01T15:18:07.798Z,8.63
2019-03-01T15:20:17.260Z,9.67
2019-03-01T15:22:21.263Z,10.90
2019-03-01T15:24:25.207Z,6.83
2019-03-01T15:26:29.085Z,11.27
2019-03-01T15:28:32.988Z,8.33
2019-03-01T15:30:36.864Z,9.13
2019-03-01T15:32:40.759Z,18.43
2019-03-01T15:34:44.682Z,10.33
2019-03-01T15:36:48.543Z,12.83
2019-03-01T15:38:52.459Z,12.43
2019-03-01T15:40:56.350Z,12.83
2019-03-01T15:43:00.236Z,17.93
2019-03-01T15:45:05.916Z,12.20
2019-03-01T15:47:10.089Z,17.23
2019-03-01T15:49:15.182Z,12.73
2019-03-01T15:51:19.495Z,14.23
2019-03-01T15:53:25.044Z,13.83
2019-03-01T15:55:29.682Z,14.13
2019-03-01T15:57:33.641Z,10.03
2019-03-01T15:59:37.496Z,10.37
2019-03-01T16:01:43.693Z,16.53
2019-03-01T16:03:46.912Z,16.63
2019-03-01T16:05:50.821Z,14.47
2019-03-01T16:07:54.718Z,13.23
2019-03-01T16:10:01.221Z,12.83
2019-03-01T16:12:04.158Z,16.67
2019-03-01T16:14:08.059Z,11.43
2019-03-01T16:16:13.603Z,12.97
2019-03-01T16:18:17.479Z,7.67
2019-03-01T16:20:21.648Z,13.63
2019-03-01T16:22:25.516Z,10.87
2019-03-01T16:24:29.376Z,13.57
2019-03-01T16:26:33.543Z,12.03
2019-03-01T16:28:38.777Z,15.27
2019-03-01T16:30:42.686Z,9.70
2019-03-01T16:32:49.535Z,14.93
2019-03-01T16:34:52.169Z,9.40
2019-03-01T16:36:56.483Z,15.37
2019-03-01T16:39:00.366Z,10.37
2019-03-01T16:41:07.470Z,19.17
2019-03-01T16:43:09.774Z,14.43
2019-03-01T16:45:17.642Z,13.67
2019-03-01T16:47:23.218Z,10.20
2019-03-01T16:49:27.179Z,9.07
2019-03-01T16:51:32.181Z,11.83
2019-03-01T16:53:36.697Z,11.27
2019-03-01T16:55:41.574Z,15.07
2019-03-01T16:57:48.682Z,12.00
2019-03-01T16:59:50.976Z,11.97
2019-03-01T17:01:54.825Z,16.07
2019-03-01T17:03:58.709Z,11.47
2019-03-01T17:06:02.595Z,18.03
2019-03-01T17:08:06.455Z,18.73
2019-03-01T17:10:13.543Z,14.67
2019-03-01T17:12:17.518Z,13.57
2019-03-01T17:14:21.448Z,14.13
2019-03-01T17:16:25.358Z,8.63
2019-03-01T17:18:29.237Z,12.80
2019-03-01T17:20:37.443Z,13.97
2019-03-01T17:22:38.693Z,11.57
2019-03-01T17:24:42.537Z,10.87
2019-03-01T17:26:46.452Z,14.50
2019-03-01T17:28:50.366Z,15.87
2019-03-01T17:30:54.904Z,16.30
2019-03-01T17:32:58.848Z,10.83
2019-03-01T17:35:05.009Z,12.97
2019-03-01T17:37:08.240Z,12.70
2019-03-01T17:39:12.217Z,14.83
2019-03-01T17:41:16.127Z,8.97
2019-03-01T17:43:20.122Z,8.60
2019-03-01T17:45:25.940Z,9.63
2019-03-01T17:47:29.841Z,11.17
2019-03-01T17:49:33.783Z,15.20
2019-03-01T17:51:37.622Z,13.00
2019-03-01T17:53:43.081Z,16.57
2019-03-01T17:55:47.064Z,17.13
2019-03-01T17:57:50.904Z,9.23
2019-03-01T17:59:55.694Z,12.53
2019-03-01T18:01:59.677Z,13.47
2019-03-01T18:04:03.560Z,10.00
2019-03-01T18:06:07.487Z,11.50
2019-03-01T18:08:11.330Z,16.83
2019-03-01T18:10:15.852Z,15.53
2019-03-01T18:12:20.584Z,8.83
2019-03-01T18:14:25.093Z,13.13
2019-03-01T18:16:30.649Z,13.13
2019-03-01T18:18:35.363Z,15.03
2019-03-01T18:20:48.002Z,11.63
2019-03-01T18:22:52.344Z,13.07
2019-03-01T18:24:56.293Z,10.47
2019-03-01T18:27:00.197Z,8.77
2019-03-01T18:29:04.815Z,23.10
2019-03-01T18:31:09.674Z,12.10
2019-03-01T18:33:16.796Z,11.10
2019-03-01T18:35:19.096Z,9.50
2019-03-01T18:37:22.937Z,9.17
2019-03-01T18:39:26.826Z,7.63
2019-03-01T18:41:30.705Z,10.53
2019-03-01T18:43:34.631Z,15.10
2019-03-01T18:45:41.699Z,12.77
2019-03-01T18:47:44.042Z,8.67
2019-03-01T18:49:47.973Z,17.27
2019-03-01T18:51:51.853Z,14.53
2019-03-01T18:53:55.712Z,6.80
2019-03-01T18:55:59.614Z,12.10
2019-03-01T18:58:03.473Z,21.20
2019-03-01T19:00:19.585Z,10.37
2019-03-01T19:02:24.370Z,14.50
2019-03-01T19:04:29.495Z,7.37
2019-03-01T19:06:34.080Z,9.97
2019-03-01T19:08:39.672Z,8.33
2019-03-01T19:10:43.792Z,11.57
2019-03-01T19:12:48.441Z,11.00
2019-03-01T19:14:53.227Z,11.63
2019-03-01T19:16:57.294Z,11.90
2019-03-01T19:19:01.383Z,14.13
2019-03-01T19:21:05.749Z,12.70
2019-03-01T19:23:09.900Z,15.33
2019-03-01T19:25:15.719Z,7.90
2019-03-01T19:27:20.251Z,12.30
2019-03-01T19:29:24.765Z,9.50
2019-03-01T19:31:29.355Z,14.00
2019-03-01T19:33:34.608Z,14.40
2019-03-01T19:35:39.722Z,14.40
2019-03-01T19:37:45.794Z,11.83
2019-03-01T19:39:50.645Z,11.10
2019-03-01T19:41:58.062Z,5.70
2019-03-01T19:44:01.304Z,14.37
2019-03-01T19:46:05.944Z,9.67
2019-03-01T19:48:10.552Z,12.47
2019-03-01T19:50:29.120Z,8.37
2019-03-01T19:52:33.720Z,12.40
2019-03-01T19:54:38.206Z,14.77
2019-03-01T19:56:42.761Z,12.37
2019-03-01T19:58:47.979Z,9.23
2019-03-01T20:00:53.518Z,11.27
2019-03-01T20:02:58.889Z,11.07
2019-03-01T20:05:03.415Z,13.43
2019-03-01T20:07:07.873Z,14.93
2019-03-01T20:09:13.472Z,11.93
2019-03-01T20:11:18.082Z,14.87
2019-03-01T20:13:22.691Z,13.97
2019-03-01T20:15:28.728Z,12.70
2019-03-01T20:17:33.439Z,15.40
2019-03-01T20:19:38.920Z,10.57
2019-03-01T20:21:44.164Z,7.60
2019-03-01T20:23:49.475Z,11.83
2019-03-01T20:25:54.213Z,16.10
2019-03-01T20:27:58.821Z,17.93
2019-03-01T20:30:04.286Z,14.83
2019-03-01T20:32:08.977Z,12.10
2019-03-01T20:34:13.489Z,12.67
2019-03-01T20:36:18.732Z,12.80
2019-03-01T20:38:23.442Z,11.17
2019-03-01T20:40:28.352Z,9.97
2019-03-01T20:42:33.061Z,13.47
2019-03-01T20:44:37.514Z,8.10
2019-03-01T20:46:43.932Z,10.63
2019-03-01T20:48:47.633Z,8.57
2019-03-01T20:50:51.923Z,10.67
2019-03-01T20:52:56.066Z,9.40
2019-03-01T20:55:00.650Z,8.17
2019-03-01T20:57:04.842Z,10.80
2019-03-01T20:59:08.760Z,10.80
2019-03-01T21:01:14.401Z,5.33
2019-03-01T21:03:18.166Z,11.73
2019-03-01T21:05:24.990Z,10.07
2019-03-01T21:07:27.635Z,9.37
2019-03-01T21:09:31.509Z,11.40
2019-03-01T21:11:35.457Z,8.90
2019-03-01T21:13:39.332Z,9.97
2019-03-01T21:15:43.268Z,11.33
2019-03-01T21:17:47.118Z,8.43
2019-03-01T21:19:50.968Z,11.63
2019-03-01T21:21:54.883Z,11.30
2019-03-01T21:23:58.773Z,9.83
2019-03-01T21:26:02.671Z,6.83
2019-03-01T21:28:06.539Z,7.60
2019-03-01T21:30:13.622Z,6.37
2019-03-01T21:32:17.503Z,8.40
2019-03-01T21:34:21.414Z,9.67
2019-03-01T21:36:26.204Z,9.57
2019-03-01T21:38:30.209Z,10.20
2019-03-01T21:40:34.590Z,9.53
2019-03-01T21:42:39.443Z,11.17
2019-03-01T21:44:45.608Z,12.83
2019-03-01T21:46:48.905Z,10.77
2019-03-01T21:48:52.843Z,16.67
2019-03-01T21:50:56.741Z,17.80
2019-03-01T21:53:01.717Z,6.77
2019-03-01T21:55:11.986Z,6.78
2019-03-01T21:57:15.850Z,10.33
2019-03-01T21:59:19.794Z,8.07
2019-03-01T22:01:23.645Z,13.60
2019-03-01T22:03:28.238Z,12.73
2019-03-01T22:05:32.716Z,12.60
2019-03-01T22:07:37.105Z,9.17
2019-03-01T22:09:42.177Z,9.70
2019-03-01T22:11:49.287Z,8.27
2019-03-01T22:13:51.546Z,6.57
2019-03-01T22:15:57.594Z,9.50
2019-03-01T22:18:01.033Z,6.73
2019-03-01T22:20:08.979Z,10.63
2019-03-01T22:22:13.348Z,6.30
2019-03-01T22:24:17.275Z,9.23
2019-03-01T22:26:21.162Z,11.63
2019-03-01T22:28:24.988Z,8.10
2019-03-01T22:30:31.702Z,9.20
2019-03-01T22:32:35.549Z,8.27
2019-03-01T22:34:39.443Z,5.90
2019-03-01T22:36:43.330Z,8.27
2019-03-01T22:38:47.277Z,9.73
2019-03-01T22:40:51.158Z,8.40
2019-03-01T22:42:55.088Z,7.90
2019-03-01T22:44:58.965Z,7.60
2019-03-01T22:47:02.856Z,10.50
2019-03-01T22:49:06.755Z,7.93
2019-03-01T22:51:10.612Z,10.70
2019-03-01T22:53:14.685Z,10.93
2019-03-01T22:55:19.358Z,9.53
2019-03-01T22:57:25.960Z,7.93
2019-03-01T22:59:28.781Z,11.03
2019-03-01T23:01:34.209Z,7.50
2019-03-01T23:03:38.107Z,9.20
2019-03-01T23:05:42.118Z,8.63
2019-03-01T23:07:45.989Z,6.10
2019-03-01T23:09:49.913Z,6.37
2019-03-01T23:11:53.841Z,7.00
2019-03-01T23:13:57.687Z,9.00
2019-03-01T23:16:01.626Z,6.50
2019-03-01T23:18:05.659Z,4.60
2019-03-01T23:20:12.145Z,7.63
2019-03-01T23:22:16.073Z,11.77
2019-03-01T23:24:19.949Z,6.10
2019-03-01T23:26:23.858Z,6.17
2019-03-01T23:28:27.714Z,8.33
2019-03-01T23:30:31.585Z,7.13
2019-03-01T23:32:35.462Z,7.47
2019-03-01T23:34:42.591Z,9.73
2019-03-01T23:36:44.945Z,8.33
2019-03-01T23:38:50.189Z,9.73
2019-03-01T23:40:54.379Z,6.60
2019-03-01T23:42:58.307Z,5.73
2019-03-01T23:45:02.172Z,5.50
2019-03-01T23:47:06.419Z,8.13
2019-03-01T23:49:10.295Z,10.07
2019-03-01T23:51:14.159Z,6.87
2019-03-01T23:53:18.042Z,10.33
2019-03-01T23:55:21.963Z,6.87
2019-03-01T23:57:25.871Z,8.50
2019-03-01T23:59:29.738Z,11.03
